Time;durP1;ratioP1;P1;durP2;ratioP2;P2;SDS_P1;SDS_P2;PMS_P1;PMS_P2;Temp;Humidity;BMP_temperature;BMP_pressure;BME280_temperature;BME280_humidity;BME280_pressure;Samples;Min_cycle;Max_cycle;Signal;HPM_P1;HPM_P2
2021/08/03 00:00:31;;;;;;;8.77;5.40;;;14.70;99.90;;;;;;4902572;29;20455;-70
2021/08/03 00:02:58;;;;;;;7.70;5.00;;;14.70;99.90;;;;;;4919936;29;20446;-70
2021/08/03 00:05:27;;;;;;;6.47;5.77;;;14.60;99.90;;;;;;4919479;29;20454;-70
2021/08/03 00:08:04;;;;;;;8.70;5.70;;;14.60;99.90;;;;;;4920411;29;20414;-70
2021/08/03 00:10:30;;;;;;;10.47;5.97;;;14.60;99.90;;;;;;4919633;29;20437;-70
2021/08/03 00:12:56;;;;;;;6.27;5.23;;;14.60;99.90;;;;;;4919204;29;20451;-70
2021/08/03 00:15:23;;;;;;;9.80;5.70;;;14.50;99.90;;;;;;4921473;29;20423;-70
2021/08/03 00:17:53;;;;;;;6.33;5.73;;;14.40;99.90;;;;;;4920331;29;20411;-69
2021/08/03 00:20:20;;;;;;;7.43;5.87;;;14.30;99.90;;;;;;4919782;29;20466;-70
2021/08/03 00:22:46;;;;;;;6.77;5.97;;;14.10;99.90;;;;;;4919415;29;20435;-70
2021/08/03 00:25:12;;;;;;;8.00;6.37;;;14.10;99.90;;;;;;4919278;29;20466;-70
2021/08/03 00:27:39;;;;;;;6.47;5.77;;;14.20;99.90;;;;;;4919163;29;20466;-68
2021/08/03 00:30:06;;;;;;;7.15;5.70;;;14.20;99.90;;;;;;4918507;29;20423;-70
2021/08/03 00:32:32;;;;;;;9.07;5.60;;;14.20;99.90;;;;;;4919224;29;20580;-71
2021/08/03 00:34:58;;;;;;;7.10;5.10;;;14.30;99.90;;;;;;4919263;29;20428;-69
2021/08/03 00:37:23;;;;;;;9.97;6.10;;;14.30;99.90;;;;;;4918776;29;20189;-69
2021/08/03 00:39:48;;;;;;;7.63;6.10;;;14.30;99.90;;;;;;4919483;29;20183;-69
2021/08/03 00:42:14;;;;;;;8.00;6.13;;;14.30;99.90;;;;;;4919697;29;20179;-69
2021/08/03 00:44:44;;;;;;;11.63;6.47;;;14.10;99.90;;;;;;4919492;29;20206;-68
2021/08/03 00:47:10;;;;;;;7.37;6.03;;;14.00;99.90;;;;;;4918830;29;20198;-69
2021/08/03 00:49:36;;;;;;;7.83;6.50;;;14.10;99.90;;;;;;4919451;29;20497;-69
2021/08/03 00:52:03;;;;;;;7.80;6.17;;;14.10;99.90;;;;;;4919053;29;20439;-70
2021/08/03 00:54:28;;;;;;;7.13;6.23;;;14.20;99.90;;;;;;4919630;29;20443;-70
2021/08/03 00:56:54;;;;;;;6.73;6.10;;;14.20;99.90;;;;;;4918829;29;20919;-69
2021/08/03 00:59:19;;;;;;;7.20;6.10;;;14.20;99.90;;;;;;4919657;29;20633;-69
2021/08/03 01:01:45;;;;;;;10.43;6.40;;;14.20;99.90;;;;;;4918848;29;20202;-70
2021/08/03 01:04:11;;;;;;;7.30;6.30;;;14.20;99.90;;;;;;4918301;29;20637;-70
2021/08/03 01:06:43;;;;;;;7.43;6.73;;;14.20;99.90;;;;;;4920444;29;20163;-69
2021/08/03 01:09:19;;;;;;;6.90;6.30;;;14.20;99.90;;;;;;4925452;29;20475;-69
2021/08/03 01:11:51;;;;;;;8.40;7.38;;;14.20;99.90;;;;;;4919962;29;20429;-68
2021/08/03 01:14:41;;;;;;;6.73;5.70;;;14.30;99.90;;;;;;4918688;29;20624;-69
2021/08/03 01:17:30;;;;;;;6.57;5.93;;;14.30;99.90;;;;;;4919248;29;20815;-69
2021/08/03 01:20:11;;;;;;;7.00;6.30;;;14.20;99.90;;;;;;4918686;29;20943;-69
2021/08/03 01:22:59;;;;;;;8.30;6.10;;;14.20;99.90;;;;;;4918390;29;20529;-70
2021/08/03 01:25:44;;;;;;;8.33;7.00;;;14.30;99.90;;;;;;4918689;29;20443;-69
2021/08/03 01:28:10;;;;;;;8.80;7.00;;;14.20;99.90;;;;;;4918265;29;20413;-70
2021/08/03 01:30:37;;;;;;;9.23;6.67;;;14.30;99.90;;;;;;4901382;29;20411;-69
2021/08/03 01:33:05;;;;;;;9.47;6.80;;;14.30;99.90;;;;;;4918522;29;20529;-70
2021/08/03 01:35:31;;;;;;;8.70;7.17;;;14.30;99.90;;;;;;4925965;28;20427;-70
2021/08/03 01:38:01;;;;;;;7.27;6.17;;;14.30;99.90;;;;;;4918464;29;20873;-69
2021/08/03 01:40:28;;;;;;;7.03;6.30;;;14.20;99.90;;;;;;4919016;29;20758;-69
2021/08/03 01:42:55;;;;;;;6.33;5.77;;;14.20;99.90;;;;;;4918797;29;20431;-68
2021/08/03 01:45:23;;;;;;;6.07;5.40;;;14.10;99.90;;;;;;4918073;29;20869;-70
2021/08/03 01:47:49;;;;;;;6.73;6.13;;;14.10;99.90;;;;;;4919823;29;20470;-69
2021/08/03 01:50:16;;;;;;;5.70;5.20;;;14.10;99.90;;;;;;4920812;29;20411;-69
2021/08/03 01:52:43;;;;;;;7.73;6.03;;;14.10;99.90;;;;;;4917618;29;20441;-69
2021/08/03 01:55:09;;;;;;;7.40;5.70;;;14.10;99.90;;;;;;4921943;29;20410;-69
2021/08/03 01:57:43;;;;;;;9.57;5.27;;;14.10;99.90;;;;;;4922632;29;20417;-69
2021/08/03 02:00:09;;;;;;;6.30;5.60;;;14.20;99.90;;;;;;4918874;29;20406;-69
2021/08/03 02:02:35;;;;;;;5.57;5.17;;;14.20;99.90;;;;;;4921865;29;20427;-69
2021/08/03 02:05:01;;;;;;;6.97;6.37;;;14.20;99.90;;;;;;4919050;29;20553;-69
2021/08/03 02:07:27;;;;;;;5.93;5.30;;;14.20;99.90;;;;;;4922240;29;20821;-69
2021/08/03 02:09:55;;;;;;;6.27;5.77;;;14.30;99.90;;;;;;4918957;29;20167;-69
2021/08/03 02:12:21;;;;;;;9.53;5.90;;;14.20;99.90;;;;;;4924504;29;20826;-69
2021/08/03 02:14:47;;;;;;;9.33;5.67;;;14.20;99.90;;;;;;4924733;29;20478;-69
2021/08/03 02:17:18;;;;;;;6.23;5.63;;;14.30;99.90;;;;;;4925779;29;20210;-69
2021/08/03 02:19:44;;;;;;;6.87;6.27;;;14.30;99.90;;;;;;4924789;29;20908;-69
2021/08/03 02:22:10;;;;;;;7.40;6.60;;;14.30;99.90;;;;;;4924565;29;20442;-69
2021/08/03 02:24:36;;;;;;;7.17;6.50;;;14.30;99.90;;;;;;4924477;29;20462;-69
2021/08/03 02:27:02;;;;;;;6.27;5.67;;;14.30;99.90;;;;;;4926735;29;20418;-69
2021/08/03 02:29:27;;;;;;;6.88;5.93;;;14.30;99.90;;;;;;4923520;29;20422;-69
2021/08/03 02:32:02;;;;;;;6.60;5.80;;;14.40;99.90;;;;;;4925000;29;20179;-69
2021/08/03 02:35:02;;;;;;;6.53;5.93;;;14.30;99.90;;;;;;4922616;29;20943;-69
2021/08/03 02:37:34;;;;;;;6.30;5.80;;;14.20;99.90;;;;;;4904317;29;20286;-69
2021/08/03 02:40:01;;;;;;;7.60;5.80;;;14.10;99.90;;;;;;4922899;29;20426;-69
2021/08/03 02:42:28;;;;;;;7.00;6.30;;;14.10;99.90;;;;;;4923726;29;20438;-70
2021/08/03 02:44:58;;;;;;;6.50;5.77;;;14.20;99.90;;;;;;4923731;29;20850;-70
2021/08/03 02:47:27;;;;;;;7.77;5.90;;;14.20;99.90;;;;;;4924222;29;20944;-70
2021/08/03 02:49:54;;;;;;;7.07;6.10;;;14.30;99.90;;;;;;4923374;29;20507;-69
2021/08/03 02:52:26;;;;;;;7.27;6.57;;;14.10;99.90;;;;;;4923699;29;20812;-70
2021/08/03 02:54:59;;;;;;;6.70;5.97;;;14.00;99.90;;;;;;4923420;29;20419;-69
2021/08/03 02:57:27;;;;;;;6.00;5.50;;;14.00;99.90;;;;;;4923681;29;20768;-70
2021/08/03 02:59:58;;;;;;;7.93;6.30;;;14.10;99.90;;;;;;4924188;29;20908;-70
2021/08/03 03:02:26;;;;;;;6.23;5.30;;;14.10;99.90;;;;;;4923268;29;20446;-69
2021/08/03 03:05:13;;;;;;;6.63;6.03;;;14.10;99.90;;;;;;4923315;29;20466;-70
2021/08/03 03:07:46;;;;;;;8.50;5.87;;;14.20;99.90;;;;;;4923268;29;20418;-70
2021/08/03 03:10:20;;;;;;;5.57;5.07;;;14.20;99.90;;;;;;4924143;29;20404;-69
2021/08/03 03:12:52;;;;;;;6.70;6.10;;;14.30;99.90;;;;;;4923316;29;20450;-70
2021/08/03 03:15:18;;;;;;;6.83;6.33;;;14.30;99.90;;;;;;4923480;29;20410;-69
2021/08/03 03:17:46;;;;;;;8.10;7.28;;;14.20;99.90;;;;;;4922227;29;20462;-69
2021/08/03 03:20:13;;;;;;;7.77;6.40;;;14.10;99.90;;;;;;4924353;29;20178;-70
2021/08/03 03:22:43;;;;;;;7.40;6.70;;;14.10;99.90;;;;;;4921115;29;20533;-69
2021/08/03 03:25:11;;;;;;;7.57;6.13;;;14.10;99.90;;;;;;4919960;29;20843;-69
2021/08/03 03:27:38;;;;;;;6.90;6.20;;;14.20;99.90;;;;;;4920288;29;20423;-69
2021/08/03 03:30:04;;;;;;;6.73;6.13;;;14.20;99.90;;;;;;4920754;29;20477;-70
2021/08/03 03:32:34;;;;;;;7.07;6.40;;;14.30;99.90;;;;;;4920164;29;20449;-69
2021/08/03 03:35:00;;;;;;;7.20;6.50;;;14.10;99.90;;;;;;4919751;29;20581;-70
2021/08/03 03:37:29;;;;;;;8.93;7.30;;;14.10;99.90;;;;;;4920755;29;20414;-70
2021/08/03 03:39:56;;;;;;;6.80;6.10;;;14.00;99.90;;;;;;4920167;29;20436;-69
2021/08/03 03:42:25;;;;;;;7.43;6.63;;;13.90;99.90;;;;;;4920340;29;20458;-70
2021/08/03 03:44:51;;;;;;;7.17;6.43;;;13.90;99.90;;;;;;4919909;29;20466;-70
2021/08/03 03:47:19;;;;;;;6.87;6.27;;;13.90;99.90;;;;;;4920116;29;20419;-70
2021/08/03 03:49:50;;;;;;;8.13;7.43;;;14.00;99.90;;;;;;4920298;29;20581;-70
2021/08/03 03:52:21;;;;;;;7.60;6.90;;;14.10;99.90;;;;;;4919391;29;20439;-70
2021/08/03 03:54:50;;;;;;;7.87;7.17;;;14.00;99.90;;;;;;4919747;29;20428;-70
2021/08/03 03:57:18;;;;;;;8.82;8.13;;;14.00;99.90;;;;;;4918714;29;20909;-70
2021/08/03 03:59:46;;;;;;;7.87;7.07;;;14.10;99.90;;;;;;4919095;29;20183;-70
2021/08/03 04:02:13;;;;;;;8.48;7.68;;;14.20;99.90;;;;;;4930659;29;20438;-70
2021/08/03 04:04:40;;;;;;;7.97;7.27;;;14.20;99.90;;;;;;4938449;29;20256;-70
2021/08/03 04:07:05;;;;;;;8.27;7.47;;;14.30;99.90;;;;;;4939100;29;20461;-70
2021/08/03 04:09:31;;;;;;;8.97;8.10;;;14.40;99.90;;;;;;4938544;29;20434;-70
2021/08/03 04:11:57;;;;;;;9.67;7.20;;;14.30;99.90;;;;;;4938870;29;20659;-70
2021/08/03 04:14:28;;;;;;;8.00;7.20;;;14.40;99.90;;;;;;4938154;29;20225;-70
2021/08/03 04:16:56;;;;;;;7.77;7.07;;;14.40;99.90;;;;;;4939193;29;20184;-70
2021/08/03 04:19:22;;;;;;;7.80;7.00;;;14.50;99.90;;;;;;4938169;29;20508;-71
2021/08/03 04:21:48;;;;;;;8.13;7.30;;;14.50;99.90;;;;;;4938831;29;20893;-68
2021/08/03 04:24:17;;;;;;;9.13;8.23;;;14.50;99.90;;;;;;4947495;28;20206;-69
2021/08/03 04:26:44;;;;;;;8.90;7.33;;;14.50;99.90;;;;;;4950444;29;20678;-70
2021/08/03 04:29:10;;;;;;;9.30;8.23;;;14.40;99.90;;;;;;4945356;29;20905;-69
2021/08/03 04:31:36;;;;;;;10.50;7.93;;;14.40;99.90;;;;;;4939044;29;20417;-70
2021/08/03 04:34:02;;;;;;;8.40;7.60;;;14.40;99.90;;;;;;4938157;29;20593;-70
2021/08/03 04:36:28;;;;;;;8.13;7.33;;;14.40;99.90;;;;;;4938716;29;20421;-69
2021/08/03 04:38:54;;;;;;;8.27;7.20;;;14.50;99.90;;;;;;4939162;29;20753;-70
2021/08/03 04:41:20;;;;;;;8.50;7.70;;;14.50;99.90;;;;;;4938516;29;20628;-70
2021/08/03 04:43:45;;;;;;;8.43;7.63;;;14.60;99.90;;;;;;4938058;29;20437;-69
2021/08/03 04:46:12;;;;;;;10.37;8.83;;;14.60;99.90;;;;;;4937019;29;20808;-70
2021/08/03 04:48:37;;;;;;;10.40;9.23;;;14.60;99.90;;;;;;4940909;29;20497;-69
2021/08/03 04:51:04;;;;;;;11.23;8.40;;;14.70;99.90;;;;;;4947165;29;20997;-69
2021/08/03 04:53:29;;;;;;;9.90;9.00;;;14.70;99.90;;;;;;4944198;29;20567;-69
2021/08/03 04:55:55;;;;;;;11.10;9.10;;;14.70;99.90;;;;;;4937563;29;20414;-69
2021/08/03 04:58:20;;;;;;;9.80;8.80;;;14.70;99.90;;;;;;4938377;29;20233;-70
2021/08/03 05:00:46;;;;;;;8.90;8.00;;;14.80;99.90;;;;;;4937924;29;20174;-70
2021/08/03 05:03:13;;;;;;;10.23;9.27;;;14.80;99.90;;;;;;4936721;29;20297;-71
2021/08/03 05:05:39;;;;;;;10.03;8.73;;;14.80;99.90;;;;;;4938741;29;20564;-70
2021/08/03 05:08:05;;;;;;;10.27;9.27;;;14.90;99.90;;;;;;4929923;29;20454;-71
2021/08/03 05:10:32;;;;;;;9.53;8.37;;;14.80;99.90;;;;;;4937102;29;20534;-70
2021/08/03 05:12:58;;;;;;;10.80;8.30;;;14.80;99.90;;;;;;4937809;29;20214;-70
2021/08/03 05:15:24;;;;;;;10.67;8.70;;;14.90;99.90;;;;;;4931442;29;20427;-70
2021/08/03 05:17:50;;;;;;;9.70;8.33;;;14.80;99.90;;;;;;4930748;29;20457;-70
2021/08/03 05:20:16;;;;;;;11.03;8.77;;;14.90;99.90;;;;;;4937613;29;20780;-70
2021/08/03 05:22:42;;;;;;;9.33;8.40;;;14.90;99.90;;;;;;4937547;29;20437;-69
2021/08/03 05:25:09;;;;;;;10.23;9.00;;;14.90;99.90;;;;;;4937496;29;20868;-69
2021/08/03 05:27:35;;;;;;;9.55;8.65;;;15.00;99.90;;;;;;4936372;29;20420;-70
2021/08/03 05:30:00;;;;;;;12.40;9.23;;;15.10;99.90;;;;;;4937552;29;20198;-69
2021/08/03 05:32:26;;;;;;;12.30;9.17;;;15.10;99.90;;;;;;4937260;29;20436;-70
2021/08/03 05:34:51;;;;;;;12.40;9.57;;;15.00;99.90;;;;;;4937161;29;20690;-70
2021/08/03 05:37:17;;;;;;;10.73;9.63;;;15.00;99.90;;;;;;4920326;29;20615;-70
2021/08/03 05:39:42;;;;;;;16.70;10.13;;;14.90;99.90;;;;;;4936640;29;20233;-69
2021/08/03 05:42:08;;;;;;;10.90;9.33;;;14.80;99.90;;;;;;4939063;29;20189;-69
2021/08/03 05:44:34;;;;;;;11.63;10.13;;;14.80;99.90;;;;;;4939410;29;20241;-70
2021/08/03 05:47:00;;;;;;;11.43;8.93;;;14.70;99.90;;;;;;4941344;29;20178;-70
2021/08/03 05:49:26;;;;;;;11.03;9.63;;;14.80;99.90;;;;;;4936811;29;20229;-70
2021/08/03 05:51:52;;;;;;;10.80;9.33;;;14.90;99.90;;;;;;4937575;29;20473;-71
2021/08/03 05:54:17;;;;;;;11.00;9.30;;;15.10;99.90;;;;;;4937613;29;20194;-70
2021/08/03 05:56:43;;;;;;;11.80;9.53;;;15.20;99.90;;;;;;4938053;29;20413;-70
2021/08/03 05:59:09;;;;;;;12.93;9.50;;;15.30;99.90;;;;;;4920581;29;20170;-70
2021/08/03 06:01:35;;;;;;;11.20;8.27;;;15.30;99.90;;;;;;4920181;29;20182;-70
2021/08/03 06:04:01;;;;;;;10.03;8.00;;;15.40;99.90;;;;;;4936442;29;20190;-71
2021/08/03 06:06:27;;;;;;;11.87;8.00;;;15.50;99.90;;;;;;4936758;29;20466;-71
2021/08/03 06:08:55;;;;;;;12.50;8.77;;;15.60;99.90;;;;;;4937131;29;20174;-71
2021/08/03 06:11:25;;;;;;;8.83;7.93;;;15.60;99.90;;;;;;4937166;29;20421;-70
2021/08/03 06:13:57;;;;;;;9.87;7.80;;;15.60;99.90;;;;;;4919489;29;20486;-70
2021/08/03 06:16:25;;;;;;;10.80;7.80;;;15.70;99.90;;;;;;4936967;29;20791;-69
2021/08/03 06:18:55;;;;;;;9.43;8.40;;;15.70;99.90;;;;;;4937125;29;20421;-70
2021/08/03 06:21:20;;;;;;;12.33;7.67;;;15.70;99.90;;;;;;4932158;29;20450;-70
2021/08/03 06:23:48;;;;;;;8.37;7.23;;;15.70;99.90;;;;;;4927912;29;20449;-71
2021/08/03 06:26:15;;;;;;;8.80;7.90;;;15.80;99.90;;;;;;4930558;29;20474;-70
2021/08/03 06:28:44;;;;;;;10.17;7.93;;;15.80;99.90;;;;;;4931258;29;20421;-70
2021/08/03 06:31:10;;;;;;;9.10;8.07;;;15.70;99.90;;;;;;4923899;29;20443;-70
2021/08/03 06:33:36;;;;;;;11.40;8.30;;;15.60;99.90;;;;;;4937529;29;20453;-70
2021/08/03 06:36:02;;;;;;;9.33;7.07;;;15.50;99.90;;;;;;4931383;29;20929;-70
2021/08/03 06:38:27;;;;;;;10.67;8.37;;;15.40;99.90;;;;;;4928957;29;20183;-70
2021/08/03 06:41:01;;;;;;;8.67;7.77;;;15.30;99.90;;;;;;4931349;29;20847;-72
2021/08/03 06:43:28;;;;;;;8.00;7.30;;;15.30;99.90;;;;;;4929251;29;20297;-70
2021/08/03 06:46:04;;;;;;;12.77;8.40;;;15.30;99.90;;;;;;4923508;29;20467;-69
2021/08/03 06:48:40;;;;;;;10.53;9.43;;;15.30;99.90;;;;;;4931336;29;20434;-69
2021/08/03 06:51:11;;;;;;;10.20;8.10;;;15.30;99.90;;;;;;4927421;29;20475;-70
2021/08/03 06:53:44;;;;;;;9.98;8.73;;;15.20;99.90;;;;;;4925487;29;20435;-70
2021/08/03 06:56:16;;;;;;;9.73;8.67;;;15.20;99.90;;;;;;4925576;29;20214;-70
2021/08/03 06:59:03;;;;;;;11.17;8.40;;;15.20;99.90;;;;;;4925795;29;20923;-69
2021/08/03 07:02:08;;;;;;;10.10;8.13;;;15.20;99.90;;;;;;4940072;29;20449;-69
2021/08/03 07:04:46;;;;;;;9.83;8.03;;;15.30;99.90;;;;;;4900274;29;21012;-70
2021/08/03 07:07:13;;;;;;;10.80;8.90;;;15.20;99.90;;;;;;4896094;29;20459;-70
2021/08/03 07:09:44;;;;;;;11.10;8.40;;;15.20;99.90;;;;;;4892835;29;20436;-70
2021/08/03 07:12:12;;;;;;;10.10;9.00;;;15.20;99.90;;;;;;4895011;29;20435;-71
2021/08/03 07:14:39;;;;;;;9.97;8.43;;;15.20;99.90;;;;;;4895436;29;20479;-70
2021/08/03 07:17:06;;;;;;;11.80;8.30;;;15.20;99.90;;;;;;4896152;29;20994;-71
2021/08/03 07:19:32;;;;;;;8.90;7.93;;;15.30;99.90;;;;;;4896254;29;20431;-69
2021/08/03 07:21:58;;;;;;;10.53;8.43;;;15.40;99.90;;;;;;4894234;29;20546;-70
2021/08/03 07:24:25;;;;;;;12.97;8.67;;;15.40;99.90;;;;;;4894873;29;20554;-70
2021/08/03 07:26:51;;;;;;;8.10;7.40;;;15.40;99.90;;;;;;4894876;29;20447;-70
2021/08/03 07:29:16;;;;;;;8.77;7.90;;;15.40;99.90;;;;;;4895987;29;20491;-70
2021/08/03 07:31:42;;;;;;;9.93;7.40;;;15.60;99.90;;;;;;4895649;29;20689;-70
2021/08/03 07:34:09;;;;;;;8.90;7.27;;;15.60;99.90;;;;;;4894886;29;20243;-70
2021/08/03 07:36:36;;;;;;;8.27;7.47;;;15.80;99.90;;;;;;4936427;29;20428;-71
2021/08/03 07:39:04;;;;;;;10.03;7.70;;;15.90;99.90;;;;;;4937335;29;20434;-70
2021/08/03 07:41:31;;;;;;;9.90;8.40;;;16.00;99.90;;;;;;4938966;29;20940;-71
2021/08/03 07:43:56;;;;;;;9.63;8.63;;;16.10;99.90;;;;;;4946521;29;20514;-70
2021/08/03 07:46:22;;;;;;;10.10;9.10;;;16.20;99.90;;;;;;4938356;29;20892;-71
2021/08/03 07:48:51;;;;;;;10.07;8.17;;;16.20;99.90;;;;;;4938356;29;20224;-70
2021/08/03 07:51:21;;;;;;;7.30;6.70;;;16.30;99.90;;;;;;4928858;29;20438;-70
2021/08/03 07:53:47;;;;;;;8.30;7.40;;;16.40;99.90;;;;;;4936311;29;20990;-70
2021/08/03 07:56:14;;;;;;;8.57;7.33;;;16.40;99.90;;;;;;4935724;29;20526;-70
2021/08/03 07:58:39;;;;;;;8.23;7.40;;;16.50;99.90;;;;;;4935936;29;20426;-70
2021/08/03 08:01:05;;;;;;;8.07;7.30;;;16.60;99.90;;;;;;4935752;29;20919;-70
2021/08/03 08:03:32;;;;;;;12.43;8.10;;;16.70;99.90;;;;;;4935948;29;20288;-70
2021/08/03 08:05:58;;;;;;;8.13;7.33;;;16.80;99.90;;;;;;4935988;29;20220;-70
2021/08/03 08:08:23;;;;;;;8.27;7.47;;;17.00;99.90;;;;;;4940631;29;20790;-70
2021/08/03 08:10:49;;;;;;;10.17;8.20;;;17.10;99.90;;;;;;4943203;29;20281;-70
2021/08/03 08:13:14;;;;;;;9.80;8.80;;;17.20;99.90;;;;;;4935279;29;20489;-70
2021/08/03 08:15:40;;;;;;;7.83;7.03;;;17.30;99.90;;;;;;4936006;29;20426;-70
2021/08/03 08:18:08;;;;;;;8.25;6.70;;;17.40;99.90;;;;;;4935810;29;20409;-71
2021/08/03 08:20:35;;;;;;;8.17;7.37;;;17.50;99.90;;;;;;4933188;29;20186;-70
2021/08/03 08:23:01;;;;;;;7.40;6.70;;;17.50;99.90;;;;;;4930315;29;20548;-70
2021/08/03 08:25:27;;;;;;;7.53;6.33;;;17.60;99.90;;;;;;4918540;29;20565;-70
2021/08/03 08:27:53;;;;;;;7.33;6.27;;;17.70;99.90;;;;;;4919385;29;20437;-70
2021/08/03 08:30:18;;;;;;;7.40;6.73;;;17.80;99.90;;;;;;4936115;29;20537;-70
2021/08/03 08:32:44;;;;;;;8.30;7.07;;;17.80;99.90;;;;;;4935967;29;20194;-70
2021/08/03 08:35:11;;;;;;;7.93;7.13;;;17.60;99.90;;;;;;4934746;29;20591;-72
2021/08/03 08:37:37;;;;;;;7.67;6.97;;;17.80;99.90;;;;;;4935769;29;20193;-70
2021/08/03 08:40:05;;;;;;;7.50;6.70;;;18.10;99.90;;;;;;4935838;29;20421;-70
2021/08/03 08:42:32;;;;;;;7.90;7.13;;;18.40;99.90;;;;;;4928192;29;20979;-71
2021/08/03 08:44:59;;;;;;;7.13;6.43;;;18.60;99.90;;;;;;4934251;29;20532;-70
2021/08/03 08:47:25;;;;;;;7.20;6.50;;;18.80;99.90;;;;;;4934909;29;20193;-71
2021/08/03 08:49:51;;;;;;;6.73;6.00;;;19.00;99.90;;;;;;4934760;29;20429;-70
2021/08/03 08:52:17;;;;;;;6.37;5.87;;;19.20;99.90;;;;;;4935049;29;20428;-70
2021/08/03 08:54:43;;;;;;;8.17;5.93;;;19.40;99.90;;;;;;4937061;29;20225;-70
2021/08/03 08:57:09;;;;;;;5.80;5.30;;;19.50;99.90;;;;;;4936390;29;20277;-71
2021/08/03 08:59:35;;;;;;;6.63;6.00;;;19.60;99.90;;;;;;4935077;29;20420;-70
2021/08/03 09:02:01;;;;;;;5.60;5.10;;;19.70;99.90;;;;;;4936960;29;20686;-70
2021/08/03 09:04:27;;;;;;;6.37;5.87;;;19.80;99.90;;;;;;4918558;29;20418;-70
2021/08/03 09:07:06;;;;;;;6.53;6.03;;;19.90;99.90;;;;;;4930423;29;20206;-71
2021/08/03 09:09:43;;;;;;;5.93;5.43;;;20.00;99.90;;;;;;4931066;29;20220;-70
2021/08/03 09:12:10;;;;;;;5.70;5.20;;;20.00;99.90;;;;;;4937237;29;20502;-72
2021/08/03 09:14:43;;;;;;;5.30;4.80;;;20.00;99.90;;;;;;4937484;29;20454;-69
2021/08/03 09:17:09;;;;;;;6.13;5.50;;;20.10;99.90;;;;;;4940312;29;20434;-71
2021/08/03 09:19:40;;;;;;;7.23;5.90;;;20.10;99.90;;;;;;4937284;29;20450;-70
2021/08/03 09:22:18;;;;;;;7.50;6.80;;;20.10;99.90;;;;;;4935534;29;20430;-71
2021/08/03 09:24:49;;;;;;;6.80;6.20;;;20.10;99.90;;;;;;4934317;29;20461;-70
2021/08/03 09:27:32;;;;;;;6.10;5.47;;;20.10;99.90;;;;;;4933937;29;20512;-71
2021/08/03 09:29:59;;;;;;;6.50;5.50;;;20.20;99.90;;;;;;4933928;29;20453;-71
2021/08/03 09:32:35;;;;;;;5.70;5.10;;;20.20;99.90;;;;;;4934057;29;20959;-70
2021/08/03 09:35:06;;;;;;;5.63;5.13;;;20.30;99.90;;;;;;4929509;29;20935;-71
2021/08/03 09:37:33;;;;;;;5.50;5.00;;;20.40;99.90;;;;;;4909147;29;20443;-71
2021/08/03 09:39:59;;;;;;;5.95;5.45;;;20.40;99.90;;;;;;4922912;29;20529;-69
2021/08/03 09:42:27;;;;;;;6.40;4.97;;;20.40;99.90;;;;;;4933165;29;20281;-70
2021/08/03 09:44:58;;;;;;;9.20;5.10;;;20.30;99.90;;;;;;4933728;29;20210;-71
2021/08/03 09:47:25;;;;;;;5.00;4.60;;;20.10;99.90;;;;;;4915425;29;20541;-71
2021/08/03 09:49:53;;;;;;;5.77;5.27;;;20.10;99.90;;;;;;4933008;29;20450;-71
2021/08/03 09:52:21;;;;;;;5.03;4.53;;;20.10;99.90;;;;;;4932675;29;20532;-71
2021/08/03 09:54:50;;;;;;;6.87;5.10;;;20.10;99.90;;;;;;4933215;29;20485;-71
2021/08/03 09:57:21;;;;;;;6.03;3.90;;;20.00;99.90;;;;;;4933406;29;20437;-71
2021/08/03 09:59:47;;;;;;;4.97;4.67;;;20.00;99.90;;;;;;4933970;29;20434;-70
2021/08/03 10:02:17;;;;;;;4.80;4.40;;;20.00;99.90;;;;;;4932392;29;20613;-70
2021/08/03 10:04:44;;;;;;;6.03;4.00;;;20.00;99.90;;;;;;4933348;29;20955;-71
2021/08/03 10:07:10;;;;;;;4.70;3.87;;;20.10;98.90;;;;;;4931952;29;20529;-70
2021/08/03 10:09:37;;;;;;;4.47;4.10;;;20.10;98.80;;;;;;4934250;29;20513;-71
2021/08/03 10:12:03;;;;;;;4.20;3.90;;;20.20;98.30;;;;;;4933482;29;20245;-70
2021/08/03 10:14:29;;;;;;;3.90;3.60;;;20.20;98.50;;;;;;4927313;29;20533;-71
2021/08/03 10:16:55;;;;;;;4.65;3.78;;;20.30;98.60;;;;;;4909223;29;20548;-71
2021/08/03 10:19:23;;;;;;;11.40;5.43;;;20.40;98.50;;;;;;4928790;29;20261;-69
2021/08/03 10:22:03;;;;;;;5.70;4.05;;;20.40;98.20;;;;;;4932908;29;20444;-70
2021/08/03 10:24:36;;;;;;;5.57;4.17;;;20.40;98.50;;;;;;4933252;29;20261;-72
2021/08/03 10:27:10;;;;;;;4.87;4.47;;;20.60;98.50;;;;;;4933455;29;20445;-71
2021/08/03 10:29:59;;;;;;;5.93;3.93;;;20.80;98.20;;;;;;4933325;29;20421;-70
2021/08/03 10:32:49;;;;;;;4.00;3.60;;;20.90;97.90;;;;;;4934779;29;20516;-70
2021/08/03 10:35:20;;;;;;;3.70;3.40;;;21.00;97.80;;;;;;4936878;29;20756;-70
2021/08/03 10:38:00;;;;;;;3.90;3.57;;;21.20;97.80;;;;;;4936760;29;20421;-70
2021/08/03 10:40:57;;;;;;;4.33;3.50;;;21.00;97.50;;;;;;4938006;29;20508;-70
2021/08/03 10:43:25;;;;;;;5.73;3.80;;;21.00;98.00;;;;;;4932400;29;20564;-70
2021/08/03 10:46:06;;;;;;;4.73;4.33;;;20.90;98.20;;;;;;4928190;29;20458;-70
2021/08/03 10:48:42;;;;;;;3.93;3.63;;;20.80;98.80;;;;;;4929482;29;20931;-70
2021/08/03 10:51:13;;;;;;;4.17;3.37;;;20.60;99.30;;;;;;4936859;29;20429;-71
2021/08/03 10:53:51;;;;;;;7.73;4.47;;;20.50;99.90;;;;;;4934784;29;20543;-70
2021/08/03 10:56:17;;;;;;;4.23;3.93;;;20.40;99.90;;;;;;4936673;29;20425;-69
2021/08/03 10:58:43;;;;;;;4.00;3.60;;;20.30;99.90;;;;;;4930875;29;20509;-70
2021/08/03 11:01:08;;;;;;;4.60;4.20;;;20.20;99.90;;;;;;4936532;29;20513;-69
2021/08/03 11:03:34;;;;;;;6.43;3.80;;;20.10;99.90;;;;;;4939904;29;20218;-68
2021/08/03 11:06:11;;;;;;;4.87;4.27;;;20.10;99.90;;;;;;4933714;29;20215;-68
2021/08/03 11:08:43;;;;;;;4.60;4.03;;;20.10;99.90;;;;;;4934259;29;20264;-68
2021/08/03 11:11:11;;;;;;;4.33;3.93;;;20.20;99.90;;;;;;4938039;29;20794;-67
2021/08/03 11:13:46;;;;;;;5.30;4.43;;;20.30;99.90;;;;;;4938056;29;20563;-68
2021/08/03 11:16:23;;;;;;;5.17;4.60;;;20.40;99.90;;;;;;4938190;29;20441;-67
2021/08/03 11:18:51;;;;;;;5.03;4.63;;;20.30;99.90;;;;;;4937823;29;20417;-68
2021/08/03 11:21:18;;;;;;;5.50;4.40;;;20.40;99.90;;;;;;4936990;29;20425;-67
2021/08/03 11:24:07;;;;;;;4.90;4.50;;;20.50;99.90;;;;;;4936928;29;20533;-68
2021/08/03 11:26:51;;;;;;;5.10;4.60;;;20.50;99.90;;;;;;4920415;29;21024;-68
2021/08/03 11:29:19;;;;;;;5.05;4.47;;;20.50;99.90;;;;;;4943063;29;20433;-67
2021/08/03 11:31:56;;;;;;;5.40;4.27;;;20.50;99.90;;;;;;4939621;29;20189;-67
2021/08/03 11:34:31;;;;;;;4.13;3.80;;;20.50;99.90;;;;;;4922259;29;20460;-67
2021/08/03 11:37:05;;;;;;;4.33;3.93;;;20.50;99.90;;;;;;4921652;29;20440;-68
2021/08/03 11:39:45;;;;;;;4.67;4.27;;;20.60;99.90;;;;;;4936549;29;20805;-67
2021/08/03 11:42:12;;;;;;;4.87;4.40;;;20.70;99.90;;;;;;4936246;29;20457;-67
2021/08/03 11:44:40;;;;;;;4.53;4.13;;;20.70;99.90;;;;;;4934548;29;20486;-68
2021/08/03 11:47:09;;;;;;;5.37;4.97;;;20.80;99.90;;;;;;4936801;29;20421;-67
2021/08/03 11:49:36;;;;;;;5.43;5.00;;;20.90;99.90;;;;;;4936093;29;20425;-67
2021/08/03 11:52:10;;;;;;;6.07;5.40;;;20.90;99.90;;;;;;4935857;29;20513;-68
2021/08/03 11:54:36;;;;;;;7.80;6.70;;;20.80;99.90;;;;;;4920176;29;20513;-67
2021/08/03 11:57:18;;;;;;;5.13;4.63;;;20.40;99.90;;;;;;4936459;29;20526;-67
2021/08/03 11:59:43;;;;;;;6.10;4.13;;;20.40;99.90;;;;;;4935008;29;20186;-69
2021/08/03 12:02:09;;;;;;;5.53;5.03;;;20.50;99.90;;;;;;4929717;29;20508;-70
2021/08/03 12:04:34;;;;;;;6.00;5.40;;;20.40;99.90;;;;;;4935896;29;20186;-70
2021/08/03 12:07:00;;;;;;;5.40;5.00;;;20.30;99.90;;;;;;4940389;29;20186;-70
2021/08/03 12:09:26;;;;;;;5.80;5.40;;;20.30;99.90;;;;;;4935515;29;20178;-70
2021/08/03 12:11:59;;;;;;;5.97;5.47;;;20.30;99.90;;;;;;4935416;29;20182;-70
2021/08/03 12:14:34;;;;;;;6.23;5.67;;;20.20;99.90;;;;;;4935219;29;20217;-70
2021/08/03 12:17:00;;;;;;;6.60;5.80;;;20.30;99.90;;;;;;4929184;29;20449;-70
2021/08/03 12:19:33;;;;;;;6.93;6.00;;;20.30;99.90;;;;;;4935171;29;20418;-70
2021/08/03 12:21:59;;;;;;;5.90;5.20;;;20.20;99.90;;;;;;4935863;29;20426;-70
2021/08/03 12:24:25;;;;;;;5.67;5.17;;;20.30;99.90;;;;;;4936829;29;20433;-70
2021/08/03 12:27:13;;;;;;;5.40;4.90;;;19.90;99.90;;;;;;4936295;29;20182;-70
2021/08/03 12:29:38;;;;;;;6.27;5.67;;;19.80;99.90;;;;;;4936092;29;20189;-70
2021/08/03 12:32:05;;;;;;;5.60;5.10;;;19.80;99.90;;;;;;4936033;29;20426;-70
2021/08/03 12:34:38;;;;;;;5.07;4.67;;;19.80;99.90;;;;;;4919269;29;20705;-70
2021/08/03 12:37:05;;;;;;;4.90;4.50;;;19.90;99.90;;;;;;4937222;29;20413;-70
2021/08/03 12:39:42;;;;;;;5.47;4.97;;;20.10;99.90;;;;;;4938579;29;20537;-70
2021/08/03 12:42:21;;;;;;;6.10;5.60;;;20.10;99.90;;;;;;4939329;29;20398;-70
2021/08/03 12:44:51;;;;;;;5.47;4.97;;;20.20;99.90;;;;;;4942863;29;20445;-71
2021/08/03 12:47:26;;;;;;;5.77;5.27;;;20.50;99.90;;;;;;4948189;29;20469;-71
2021/08/03 12:50:04;;;;;;;5.10;4.70;;;20.60;99.90;;;;;;4946868;29;20417;-71
2021/08/03 12:52:30;;;;;;;5.80;5.30;;;20.80;99.90;;;;;;4938798;29;20513;-70
2021/08/03 12:54:59;;;;;;;5.07;4.77;;;21.10;99.90;;;;;;4938145;29;20453;-69